sensor_id;sensor_type;location;lat;lon;timestamp;pressure;altitude;pressure_sealevel;temperature;humidity
75938;BME280;64615;32.062;34.834;2023-07-20T00:01:46;99940.47;;;28.05;59.58
75938;BME280;64615;32.062;34.834;2023-07-20T00:04:13;99938.84;;;28.04;59.68
75938;BME280;64615;32.062;34.834;2023-07-20T00:06:39;99932.06;;;28.01;59.74
75938;BME280;64615;32.062;34.834;2023-07-20T00:09:06;99941.41;;;28.00;59.72
75938;BME280;64615;32.062;34.834;2023-07-20T00:11:35;99944.94;;;28.01;60.00
75938;BME280;64615;32.062;34.834;2023-07-20T00:14:02;99946.56;;;28.02;59.96
75938;BME280;64615;32.062;34.834;2023-07-20T00:16:27;99937.53;;;28.01;59.86
75938;BME280;64615;32.062;34.834;2023-07-20T00:18:53;99937.06;;;27.99;60.06
75938;BME280;64615;32.062;34.834;2023-07-20T00:21:18;99930.44;;;28.00;60.00
75938;BME280;64615;32.062;34.834;2023-07-20T00:23:45;99934.81;;;28.01;59.88
75938;BME280;64615;32.062;34.834;2023-07-20T00:26:11;99944.13;;;28.00;59.91
75938;BME280;64615;32.062;34.834;2023-07-20T00:28:36;99935.91;;;28.00;59.85
75938;BME280;64615;32.062;34.834;2023-07-20T00:31:02;99943.00;;;28.01;60.03
75938;BME280;64615;32.062;34.834;2023-07-20T00:33:28;99937.53;;;28.01;60.02
75938;BME280;64615;32.062;34.834;2023-07-20T00:35:53;99943.81;;;28.02;59.98
75938;BME280;64615;32.062;34.834;2023-07-20T00:38:19;99941.41;;;28.00;60.08
75938;BME280;64615;32.062;34.834;2023-07-20T00:40:46;99935.63;;;28.02;60.07
75938;BME280;64615;32.062;34.834;2023-07-20T00:43:11;99939.16;;;28.02;59.82
75938;BME280;64615;32.062;34.834;2023-07-20T00:45:38;99935.31;;;28.03;59.89
75938;BME280;64615;32.062;34.834;2023-07-20T00:48:04;99937.25;;;28.03;59.90
75938;BME280;64615;32.062;34.834;2023-07-20T00:50:32;99941.09;;;28.02;60.08
75938;BME280;64615;32.062;34.834;2023-07-20T00:52:58;99937.53;;;28.01;60.28
75938;BME280;64615;32.062;34.834;2023-07-20T00:55:25;99944.63;;;28.02;60.08
75938;BME280;64615;32.062;34.834;2023-07-20T00:57:52;99936.94;;;28.04;60.06
75938;BME280;64615;32.062;34.834;2023-07-20T01:00:18;99940.97;;;28.07;60.01
75938;BME280;64615;32.062;34.834;2023-07-20T01:02:44;99940.97;;;28.07;60.07
75938;BME280;64615;32.062;34.834;2023-07-20T01:05:11;99947.06;;;28.04;60.16
75938;BME280;64615;32.062;34.834;2023-07-20T01:07:51;99939.00;;;27.99;60.22
75938;BME280;64615;32.062;34.834;2023-07-20T01:12:55;99938.31;;;27.93;60.30
75938;BME280;64615;32.062;34.834;2023-07-20T01:15:21;99951.47;;;27.91;60.35
75938;BME280;64615;32.062;34.834;2023-07-20T01:17:47;99947.13;;;27.90;60.51
75938;BME280;64615;32.062;34.834;2023-07-20T01:20:14;99942.97;;;27.93;60.42
75938;BME280;64615;32.062;34.834;2023-07-20T01:33:25;99956.53;;;27.98;60.31
75938;BME280;64615;32.062;34.834;2023-07-20T01:35:55;99959.25;;;27.98;60.19
75938;BME280;64615;32.062;34.834;2023-07-20T01:38:22;99965.25;;;28.00;60.12
75938;BME280;64615;32.062;34.834;2023-07-20T01:40:49;99958.94;;;27.99;60.04
75938;BME280;64615;32.062;34.834;2023-07-20T01:43:16;99958.94;;;27.99;60.02
75938;BME280;64615;32.062;34.834;2023-07-20T01:45:41;99966.34;;;27.99;60.30
75938;BME280;64615;32.062;34.834;2023-07-20T01:48:07;99964.22;;;27.96;60.30
75938;BME280;64615;32.062;34.834;2023-07-20T01:50:33;99981.28;;;27.93;60.44
75938;BME280;64615;32.062;34.834;2023-07-20T01:53:00;99979.66;;;27.92;60.48
75938;BME280;64615;32.062;34.834;2023-07-20T01:55:26;99973.69;;;27.90;60.38
75938;BME280;64615;32.062;34.834;2023-07-20T01:57:52;99972.56;;;27.91;60.53
75938;BME280;64615;32.062;34.834;2023-07-20T02:00:18;99964.06;;;27.92;60.40
75938;BME280;64615;32.062;34.834;2023-07-20T02:02:46;99968.41;;;27.93;60.37
75938;BME280;64615;32.062;34.834;2023-07-20T02:05:12;99975.50;;;27.94;60.46
75938;BME280;64615;32.062;34.834;2023-07-20T02:07:38;99969.22;;;27.94;60.39
75938;BME280;64615;32.062;34.834;2023-07-20T02:10:05;99963.75;;;27.94;60.49
75938;BME280;64615;32.062;34.834;2023-07-20T02:12:30;99959.09;;;27.94;60.36
75938;BME280;64615;32.062;34.834;2023-07-20T02:14:56;99959.56;;;27.96;60.52
75938;BME280;64615;32.062;34.834;2023-07-20T02:17:22;99970.50;;;27.96;60.18
75938;BME280;64615;32.062;34.834;2023-07-20T02:19:52;99967.97;;;28.00;60.14
75938;BME280;64615;32.062;34.834;2023-07-20T02:22:18;99972.63;;;27.99;60.22
75938;BME280;64615;32.062;34.834;2023-07-20T02:24:44;99974.56;;;27.99;60.14
75938;BME280;64615;32.062;34.834;2023-07-20T02:27:09;99977.09;;;27.95;60.20
75938;BME280;64615;32.062;34.834;2023-07-20T02:29:35;99984.00;;;27.93;60.22
75938;BME280;64615;32.062;34.834;2023-07-20T02:32:01;99990.91;;;27.90;60.49
75938;BME280;64615;32.062;34.834;2023-07-20T02:34:27;99993.16;;;27.88;60.34
75938;BME280;64615;32.062;34.834;2023-07-20T02:36:53;99992.34;;;27.88;60.54
75938;BME280;64615;32.062;34.834;2023-07-20T02:39:21;100001.38;;;27.88;60.51
75938;BME280;64615;32.062;34.834;2023-07-20T02:41:47;100006.31;;;27.86;60.40
75938;BME280;64615;32.062;34.834;2023-07-20T02:44:13;100013.41;;;27.87;60.59
75938;BME280;64615;32.062;34.834;2023-07-20T02:46:39;100014.22;;;27.88;60.78
75938;BME280;64615;32.062;34.834;2023-07-20T02:49:05;100012.78;;;27.90;60.36
75938;BME280;64615;32.062;34.834;2023-07-20T02:51:30;100013.59;;;27.91;60.32
75938;BME280;64615;32.062;34.834;2023-07-20T02:53:56;100015.22;;;27.92;60.12
75938;BME280;64615;32.062;34.834;2023-07-20T02:56:22;100019.06;;;27.91;60.33
75938;BME280;64615;32.062;34.834;2023-07-20T02:58:48;100023.25;;;27.88;60.26
75938;BME280;64615;32.062;34.834;2023-07-20T03:01:14;100016.66;;;27.89;60.36
75938;BME280;64615;32.062;34.834;2023-07-20T03:03:41;100017.47;;;27.90;60.29
75938;BME280;64615;32.062;34.834;2023-07-20T03:06:13;100031.94;;;27.90;60.07
75938;BME280;64615;32.062;34.834;2023-07-20T03:08:39;100023.25;;;27.88;60.23
75938;BME280;64615;32.062;34.834;2023-07-20T03:11:07;100032.88;;;27.86;60.42
75938;BME280;64615;32.062;34.834;2023-07-20T03:13:33;100034.78;;;27.85;60.42
75938;BME280;64615;32.062;34.834;2023-07-20T03:15:58;100034.78;;;27.85;60.21
75938;BME280;64615;32.062;34.834;2023-07-20T03:18:24;100043.31;;;27.84;60.23
75938;BME280;64615;32.062;34.834;2023-07-20T03:20:49;100046.06;;;27.84;60.31
75938;BME280;64615;32.062;34.834;2023-07-20T03:23:15;100052.66;;;27.83;60.43
75938;BME280;64615;32.062;34.834;2023-07-20T03:25:41;100050.72;;;27.83;60.34
75938;BME280;64615;32.062;34.834;2023-07-20T03:28:07;100054.56;;;27.82;60.31
75938;BME280;64615;32.062;34.834;2023-07-20T03:30:33;100053.47;;;27.83;60.39
75938;BME280;64615;32.062;34.834;2023-07-20T03:32:58;100056.19;;;27.83;60.11
75938;BME280;64615;32.062;34.834;2023-07-20T03:35:24;100061.66;;;27.83;60.15
75938;BME280;64615;32.062;34.834;2023-07-20T03:37:50;100068.75;;;27.84;60.19
75938;BME280;64615;32.062;34.834;2023-07-20T03:40:15;100062.16;;;27.85;60.09
75938;BME280;64615;32.062;34.834;2023-07-20T03:42:41;100064.88;;;27.85;60.11
75938;BME280;64615;32.062;34.834;2023-07-20T03:45:07;100068.44;;;27.86;59.90
75938;BME280;64615;32.062;34.834;2023-07-20T03:47:33;100077.97;;;27.88;59.92
75938;BME280;64615;32.062;34.834;2023-07-20T03:49:59;100074.09;;;27.89;59.85
75938;BME280;64615;32.062;34.834;2023-07-20T03:52:24;100065.91;;;27.89;59.87
75938;BME280;64615;32.062;34.834;2023-07-20T03:54:50;100075.41;;;27.92;59.77
75938;BME280;64615;32.062;34.834;2023-07-20T03:57:17;100076.72;;;27.94;59.63
75938;BME280;64615;32.062;34.834;2023-07-20T03:59:45;100087.03;;;27.97;59.35
75938;BME280;64615;32.062;34.834;2023-07-20T04:02:11;100085.13;;;27.98;59.57
75938;BME280;64615;32.062;34.834;2023-07-20T04:04:37;100086.09;;;28.02;59.23
75938;BME280;64615;32.062;34.834;2023-07-20T04:07:03;100090.97;;;28.05;59.00
75938;BME280;64615;32.062;34.834;2023-07-20T04:09:29;100085.69;;;28.08;58.84
75938;BME280;64615;32.062;34.834;2023-07-20T04:11:55;100095.81;;;28.08;59.01
75938;BME280;64615;32.062;34.834;2023-07-20T04:14:21;100089.53;;;28.07;59.05
75938;BME280;64615;32.062;34.834;2023-07-20T04:16:47;100087.78;;;28.11;58.62
75938;BME280;64615;32.062;34.834;2023-07-20T04:19:12;100087.78;;;28.11;58.95
75938;BME280;64615;32.062;34.834;2023-07-20T04:21:41;100087.22;;;28.14;58.83
75938;BME280;64615;32.062;34.834;2023-07-20T04:24:07;100089.13;;;28.14;58.68
75938;BME280;64615;32.062;34.834;2023-07-20T04:26:33;100085.75;;;28.17;58.71
75938;BME280;64615;32.062;34.834;2023-07-20T04:28:58;100089.31;;;28.17;58.97
75938;BME280;64615;32.062;34.834;2023-07-20T04:31:24;100097.72;;;28.21;58.67
75938;BME280;64615;32.062;34.834;2023-07-20T04:33:50;100091.31;;;28.26;58.56
75938;BME280;64615;32.062;34.834;2023-07-20T04:36:16;100090.81;;;28.23;58.98
75938;BME280;64615;32.062;34.834;2023-07-20T04:38:47;100102.28;;;28.26;59.27
75938;BME280;64615;32.062;34.834;2023-07-20T04:41:13;100104.53;;;28.32;59.04
75938;BME280;64615;32.062;34.834;2023-07-20T04:43:43;100104.88;;;27.31;59.50
75938;BME280;64615;32.062;34.834;2023-07-20T04:46:10;100097.50;;;26.59;59.02
75938;BME280;64615;32.062;34.834;2023-07-20T04:48:36;100109.44;;;26.30;57.33
75938;BME280;64615;32.062;34.834;2023-07-20T04:51:02;100114.56;;;26.50;60.10
75938;BME280;64615;32.062;34.834;2023-07-20T04:53:28;100105.59;;;26.64;58.57
75938;BME280;64615;32.062;34.834;2023-07-20T04:55:53;100119.31;;;26.07;57.12
75938;BME280;64615;32.062;34.834;2023-07-20T04:58:21;100120.22;;;26.54;60.45
75938;BME280;64615;32.062;34.834;2023-07-20T05:00:48;100122.63;;;26.23;58.40
75938;BME280;64615;32.062;34.834;2023-07-20T05:03:14;100122.19;;;26.35;58.86
75938;BME280;64615;32.062;34.834;2023-07-20T05:05:39;100125.91;;;26.58;59.65
75938;BME280;64615;32.062;34.834;2023-07-20T05:08:05;100117.75;;;26.20;57.65
75938;BME280;64615;32.062;34.834;2023-07-20T05:10:31;100129.25;;;26.36;60.87
75938;BME280;64615;32.062;34.834;2023-07-20T05:12:58;100127.56;;;26.86;59.58
75938;BME280;64615;32.062;34.834;2023-07-20T05:15:23;100130.47;;;27.35;58.12
75938;BME280;64615;32.062;34.834;2023-07-20T05:17:49;100125.84;;;27.63;57.24
75938;BME280;64615;32.062;34.834;2023-07-20T05:20:15;100134.72;;;27.83;56.95
75938;BME280;64615;32.062;34.834;2023-07-20T05:22:41;100123.53;;;27.93;56.40
75938;BME280;64615;32.062;34.834;2023-07-20T05:25:08;100126.03;;;28.03;56.38
75938;BME280;64615;32.062;34.834;2023-07-20T05:27:37;100122.53;;;28.11;56.15
75938;BME280;64615;32.062;34.834;2023-07-20T05:30:04;100123.78;;;28.18;56.32
75938;BME280;64615;32.062;34.834;2023-07-20T05:32:30;100122.53;;;28.25;55.89
75938;BME280;64615;32.062;34.834;2023-07-20T05:34:57;100116.44;;;28.28;56.03
75938;BME280;64615;32.062;34.834;2023-07-20T05:37:22;100119.03;;;28.33;56.00
75938;BME280;64615;32.062;34.834;2023-07-20T05:39:48;100119.25;;;28.36;56.07
75938;BME280;64615;32.062;34.834;2023-07-20T05:42:13;100117.00;;;28.38;56.04
75938;BME280;64615;32.062;34.834;2023-07-20T05:44:40;100124.47;;;28.46;55.96
75938;BME280;64615;32.062;34.834;2023-07-20T05:47:06;100128.31;;;28.45;56.10
75938;BME280;64615;32.062;34.834;2023-07-20T05:49:32;100121.72;;;28.46;55.95
75938;BME280;64615;32.062;34.834;2023-07-20T05:51:57;100129.63;;;28.48;55.99
75938;BME280;64615;32.062;34.834;2023-07-20T05:54:26;100122.22;;;28.48;56.25
75938;BME280;64615;32.062;34.834;2023-07-20T05:56:52;100116.75;;;28.48;56.06
75938;BME280;64615;32.062;34.834;2023-07-20T05:59:18;100130.94;;;28.50;56.36
75938;BME280;64615;32.062;34.834;2023-07-20T06:01:45;100124.66;;;28.50;56.38
75938;BME280;64615;32.062;34.834;2023-07-20T06:04:14;100124.34;;;28.51;56.22
75938;BME280;64615;32.062;34.834;2023-07-20T06:06:39;100118.22;;;28.54;56.48
75938;BME280;64615;32.062;34.834;2023-07-20T06:09:05;100122.91;;;28.54;56.27
75938;BME280;64615;32.062;34.834;2023-07-20T06:11:35;100117.13;;;28.55;55.99
75938;BME280;64615;32.062;34.834;2023-07-20T06:14:01;100121.16;;;28.58;56.46
75938;BME280;64615;32.062;34.834;2023-07-20T06:16:26;100114.56;;;28.59;56.34
75938;BME280;64615;32.062;34.834;2023-07-20T06:18:52;100110.69;;;28.60;56.51
75938;BME280;64615;32.062;34.834;2023-07-20T06:21:17;100111.50;;;28.60;56.51
75938;BME280;64615;32.062;34.834;2023-07-20T06:23:43;100118.91;;;28.60;56.72
75938;BME280;64615;32.062;34.834;2023-07-20T06:26:09;100119.72;;;28.60;56.63
75938;BME280;64615;32.062;34.834;2023-07-20T06:28:34;100112.31;;;28.61;56.72
75938;BME280;64615;32.062;34.834;2023-07-20T06:31:01;100125.19;;;28.60;56.44
75938;BME280;64615;32.062;34.834;2023-07-20T06:33:26;100122.47;;;28.60;56.91
75938;BME280;64615;32.062;34.834;2023-07-20T06:35:52;100118.59;;;28.61;56.93
75938;BME280;64615;32.062;34.834;2023-07-20T06:38:18;100119.41;;;28.62;56.59
75938;BME280;64615;32.062;34.834;2023-07-20T06:40:47;100121.81;;;28.63;56.71
75938;BME280;64615;32.062;34.834;2023-07-20T06:43:13;100122.16;;;28.62;56.94
75938;BME280;64615;32.062;34.834;2023-07-20T06:45:39;100118.28;;;28.63;56.73
75938;BME280;64615;32.062;34.834;2023-07-20T06:48:04;100119.91;;;28.64;56.85
75938;BME280;64615;32.062;34.834;2023-07-20T06:50:30;100113.94;;;28.62;57.03
75938;BME280;64615;32.062;34.834;2023-07-20T06:52:55;100112.50;;;28.64;56.72
75938;BME280;64615;32.062;34.834;2023-07-20T06:55:21;100115.53;;;28.63;57.12
75938;BME280;64615;32.062;34.834;2023-07-20T06:57:47;100110.88;;;28.63;57.03
75938;BME280;64615;32.062;34.834;2023-07-20T07:00:13;100108.47;;;28.62;56.67
75938;BME280;64615;32.062;34.834;2023-07-20T07:02:39;100118.09;;;28.59;56.97
75938;BME280;64615;32.062;34.834;2023-07-20T07:05:05;100121.66;;;28.60;57.20
75938;BME280;64615;32.062;34.834;2023-07-20T07:07:31;100121.66;;;28.60;56.96
75938;BME280;64615;32.062;34.834;2023-07-20T07:09:57;100112.63;;;28.59;57.07
75938;BME280;64615;32.062;34.834;2023-07-20T07:12:23;100108.78;;;28.60;56.95
75938;BME280;64615;32.062;34.834;2023-07-20T07:14:48;100111.22;;;28.62;57.00
75938;BME280;64615;32.062;34.834;2023-07-20T07:17:14;100107.66;;;28.61;57.27
75938;BME280;64615;32.062;34.834;2023-07-20T07:19:40;100108.94;;;28.64;57.02
75938;BME280;64615;32.062;34.834;2023-07-20T07:22:06;100113.59;;;28.63;57.07
75938;BME280;64615;32.062;34.834;2023-07-20T07:24:31;100110.56;;;28.65;57.30
75938;BME280;64615;32.062;34.834;2023-07-20T07:26:59;100102.66;;;28.63;57.15
75938;BME280;64615;32.062;34.834;2023-07-20T07:29:25;100099.09;;;28.63;57.30
75938;BME280;64615;32.062;34.834;2023-07-20T07:31:51;100099.91;;;28.63;57.19
75938;BME280;64615;32.062;34.834;2023-07-20T07:34:17;100101.84;;;28.63;57.28
75938;BME280;64615;32.062;34.834;2023-07-20T07:36:43;100099.91;;;28.63;57.11
75938;BME280;64615;32.062;34.834;2023-07-20T07:39:09;100099.09;;;28.63;57.37
75938;BME280;64615;32.062;34.834;2023-07-20T07:41:35;100103.00;;;28.62;57.55
75938;BME280;64615;32.062;34.834;2023-07-20T07:44:01;100086.06;;;28.60;57.35
75938;BME280;64615;32.062;34.834;2023-07-20T07:46:26;100099.44;;;28.61;57.37
75938;BME280;64615;32.062;34.834;2023-07-20T07:48:52;100097.81;;;28.60;57.31
75938;BME280;64615;32.062;34.834;2023-07-20T07:51:18;100098.13;;;28.59;57.31
75938;BME280;64615;32.062;34.834;2023-07-20T07:53:45;100089.91;;;28.59;57.24
75938;BME280;64615;32.062;34.834;2023-07-20T07:56:11;100095.88;;;28.61;57.09
75938;BME280;64615;32.062;34.834;2023-07-20T07:58:37;100095.06;;;28.60;57.51
75938;BME280;64615;32.062;34.834;2023-07-20T08:01:03;100093.16;;;28.61;57.01
75938;BME280;64615;32.062;34.834;2023-07-20T08:03:29;100089.59;;;28.60;57.42
75938;BME280;64615;32.062;34.834;2023-07-20T08:05:55;100090.41;;;28.61;57.46
75938;BME280;64615;32.062;34.834;2023-07-20T08:08:21;100095.59;;;28.62;57.51
75938;BME280;64615;32.062;34.834;2023-07-20T08:10:47;100086.56;;;28.62;57.40
75938;BME280;64615;32.062;34.834;2023-07-20T08:13:13;100085.75;;;28.61;57.51
75938;BME280;64615;32.062;34.834;2023-07-20T08:15:39;100083.00;;;28.61;57.35
75938;BME280;64615;32.062;34.834;2023-07-20T08:18:05;100083.81;;;28.62;57.52
75938;BME280;64615;32.062;34.834;2023-07-20T08:20:31;100083.31;;;28.60;57.25
75938;BME280;64615;32.062;34.834;2023-07-20T08:22:57;100081.38;;;28.60;57.60
75938;BME280;64615;32.062;34.834;2023-07-20T08:25:25;100084.13;;;28.60;57.60
75938;BME280;64615;32.062;34.834;2023-07-20T08:27:51;100081.69;;;28.59;57.54
75938;BME280;64615;32.062;34.834;2023-07-20T08:30:16;100084.44;;;28.59;57.57
75938;BME280;64615;32.062;34.834;2023-07-20T08:32:42;100080.88;;;28.58;57.60
75938;BME280;64615;32.062;34.834;2023-07-20T08:35:08;100086.34;;;28.58;57.53
75938;BME280;64615;32.062;34.834;2023-07-20T08:37:34;100071.84;;;28.58;57.73
75938;BME280;64615;32.062;34.834;2023-07-20T08:40:00;100071.53;;;28.59;57.94
75938;BME280;64615;32.062;34.834;2023-07-20T08:42:27;100078.13;;;28.58;57.93
75938;BME280;64615;32.062;34.834;2023-07-20T08:44:53;100074.59;;;28.58;57.65
75938;BME280;64615;32.062;34.834;2023-07-20T08:47:20;100081.69;;;28.59;57.90
75938;BME280;64615;32.062;34.834;2023-07-20T08:49:48;100078.94;;;28.59;57.83
75938;BME280;64615;32.062;34.834;2023-07-20T08:52:15;100080.06;;;28.58;57.64
75938;BME280;64615;32.062;34.834;2023-07-20T08:54:40;100089.09;;;28.58;58.04
75938;BME280;64615;32.062;34.834;2023-07-20T08:57:06;100081.69;;;28.59;57.89
75938;BME280;64615;32.062;34.834;2023-07-20T08:59:35;100083.63;;;28.58;57.88
75938;BME280;64615;32.062;34.834;2023-07-20T09:02:02;100084.75;;;28.57;57.87
75938;BME280;64615;32.062;34.834;2023-07-20T09:04:30;100069.44;;;28.56;58.01
75938;BME280;64615;32.062;34.834;2023-07-20T09:06:56;100065.91;;;28.56;57.91
75938;BME280;64615;32.062;34.834;2023-07-20T09:09:22;100077.97;;;28.55;58.33
75938;BME280;64615;32.062;34.834;2023-07-20T09:11:51;100077.16;;;28.54;58.06
75938;BME280;64615;32.062;34.834;2023-07-20T09:14:17;100075.22;;;28.55;58.24
75938;BME280;64615;32.062;34.834;2023-07-20T09:16:55;100076.34;;;28.54;58.30
75938;BME280;64615;32.062;34.834;2023-07-20T09:19:21;100070.88;;;28.54;58.11
75938;BME280;64615;32.062;34.834;2023-07-20T09:21:50;100074.72;;;28.53;57.98
75938;BME280;64615;32.062;34.834;2023-07-20T09:24:19;100077.47;;;28.53;58.20
75938;BME280;64615;32.062;34.834;2023-07-20T09:26:46;100072.31;;;28.51;58.34
75938;BME280;64615;32.062;34.834;2023-07-20T09:29:20;100073.94;;;28.52;58.22
75938;BME280;64615;32.062;34.834;2023-07-20T09:32:11;100080.19;;;28.53;58.12
75938;BME280;64615;32.062;34.834;2023-07-20T09:34:37;100084.38;;;28.50;58.09
75938;BME280;64615;32.062;34.834;2023-07-20T09:37:03;100090.38;;;28.52;58.29
75938;BME280;64615;32.062;34.834;2023-07-20T09:39:29;100080.19;;;28.53;58.28
75938;BME280;64615;32.062;34.834;2023-07-20T09:42:00;100078.28;;;28.53;58.01
75938;BME280;64615;32.062;34.834;2023-07-20T09:44:27;100083.28;;;28.51;58.33
75938;BME280;64615;32.062;34.834;2023-07-20T09:46:54;100084.09;;;28.52;58.27
75938;BME280;64615;32.062;34.834;2023-07-20T09:49:21;100078.28;;;28.53;58.04
75938;BME280;64615;32.062;34.834;2023-07-20T09:51:47;100080.53;;;28.51;58.04
75938;BME280;64615;32.062;34.834;2023-07-20T09:54:13;100080.53;;;28.51;57.97
75938;BME280;64615;32.062;34.834;2023-07-20T09:56:39;100076.16;;;28.50;58.37
75938;BME280;64615;32.062;34.834;2023-07-20T09:59:06;100075.34;;;28.50;58.23
75938;BME280;64615;32.062;34.834;2023-07-20T10:01:32;100076.16;;;28.50;58.34
75938;BME280;64615;32.062;34.834;2023-07-20T10:04:01;100070.19;;;28.48;58.03
75938;BME280;64615;32.062;34.834;2023-07-20T10:06:30;100077.28;;;28.49;58.33
75938;BME280;64615;32.062;34.834;2023-07-20T10:09:01;100076.00;;;28.47;58.02
75938;BME280;64615;32.062;34.834;2023-07-20T10:11:30;100072.44;;;28.46;57.94
75938;BME280;64615;32.062;34.834;2023-07-20T10:13:56;100080.66;;;28.46;58.28
75938;BME280;64615;32.062;34.834;2023-07-20T10:16:46;100078.75;;;28.47;57.99
75938;BME280;64615;32.062;34.834;2023-07-20T10:19:34;100069.72;;;28.46;58.03
75938;BME280;64615;32.062;34.834;2023-07-20T10:22:14;100072.75;;;28.45;58.30
75938;BME280;64615;32.062;34.834;2023-07-20T10:24:45;100062.09;;;28.43;58.21
75938;BME280;64615;32.062;34.834;2023-07-20T10:27:12;100068.41;;;28.44;58.13
75938;BME280;64615;32.062;34.834;2023-07-20T10:29:39;100065.66;;;28.44;58.09
75938;BME280;64615;32.062;34.834;2023-07-20T10:32:05;100059.72;;;28.42;58.05
75938;BME280;64615;32.062;34.834;2023-07-20T10:34:31;100071.13;;;28.44;57.95
75938;BME280;64615;32.062;34.834;2023-07-20T10:36:57;100062.91;;;28.44;57.82
75938;BME280;64615;32.062;34.834;2023-07-20T10:39:24;100062.91;;;28.44;57.93
75938;BME280;64615;32.062;34.834;2023-07-20T10:41:59;100065.66;;;28.44;57.85
75938;BME280;64615;32.062;34.834;2023-07-20T10:44:26;100047.59;;;28.43;57.69
75938;BME280;64615;32.062;34.834;2023-07-20T10:46:59;100056.63;;;28.43;57.86
75938;BME280;64615;32.062;34.834;2023-07-20T10:49:25;100062.09;;;28.43;57.58
75938;BME280;64615;32.062;34.834;2023-07-20T10:51:59;100054.22;;;28.42;57.81
75938;BME280;64615;32.062;34.834;2023-07-20T10:56:51;100052.59;;;28.41;57.36
75938;BME280;64615;32.062;34.834;2023-07-20T10:59:41;100061.28;;;28.43;57.46
75938;BME280;64615;32.062;34.834;2023-07-20T11:02:09;100057.75;;;28.42;57.29
75938;BME280;64615;32.062;34.834;2023-07-20T11:04:47;100063.22;;;28.42;57.30
75938;BME280;64615;32.062;34.834;2023-07-20T11:07:35;100065.97;;;28.42;57.32
75938;BME280;64615;32.062;34.834;2023-07-20T11:10:15;100061.28;;;28.43;57.63
75938;BME280;64615;32.062;34.834;2023-07-20T11:12:41;100044.88;;;28.43;57.36
75938;BME280;64615;32.062;34.834;2023-07-20T11:15:07;100064.03;;;28.43;57.33
75938;BME280;64615;32.062;34.834;2023-07-20T11:17:32;100065.66;;;28.44;57.41
75938;BME280;64615;32.062;34.834;2023-07-20T11:19:59;100068.41;;;28.44;57.32
75938;BME280;64615;32.062;34.834;2023-07-20T11:22:30;100050.34;;;28.43;57.17
75938;BME280;64615;32.062;34.834;2023-07-20T11:24:57;100048.28;;;28.48;56.48
75938;BME280;64615;32.062;34.834;2023-07-20T11:27:23;100056.50;;;28.48;57.01
75938;BME280;64615;32.062;34.834;2023-07-20T11:29:49;100040.88;;;28.49;56.37
75938;BME280;64615;32.062;34.834;2023-07-20T11:32:22;100053.75;;;28.48;56.75
75938;BME280;64615;32.062;34.834;2023-07-20T11:34:49;100040.88;;;28.49;56.25
75938;BME280;64615;32.062;34.834;2023-07-20T11:37:15;100051.53;;;28.50;56.55
75938;BME280;64615;32.062;34.834;2023-07-20T11:39:41;100053.63;;;28.53;55.79
75938;BME280;64615;32.062;34.834;2023-07-20T11:42:07;100057.97;;;28.54;55.85
75938;BME280;64615;32.062;34.834;2023-07-20T11:44:33;100058.28;;;28.53;56.47
75938;BME280;64615;32.062;34.834;2023-07-20T11:47:04;100067.97;;;28.50;56.23
75938;BME280;64615;32.062;34.834;2023-07-20T11:49:34;100064.41;;;28.50;56.77
75938;BME280;64615;32.062;34.834;2023-07-20T11:52:00;100043.31;;;28.50;56.54
75938;BME280;64615;32.062;34.834;2023-07-20T11:54:26;100060.56;;;28.51;56.42
75938;BME280;64615;32.062;34.834;2023-07-20T11:56:55;100064.41;;;28.50;56.37
75938;BME280;64615;32.062;34.834;2023-07-20T11:59:23;100058.78;;;28.55;56.17
75938;BME280;64615;32.062;34.834;2023-07-20T12:01:49;100063.00;;;28.52;56.06
75938;BME280;64615;32.062;34.834;2023-07-20T12:04:15;100072.50;;;28.55;56.08
75938;BME280;64615;32.062;34.834;2023-07-20T12:06:40;100078.78;;;28.55;56.42
75938;BME280;64615;32.062;34.834;2023-07-20T12:09:13;100081.81;;;28.54;56.19
75938;BME280;64615;32.062;34.834;2023-07-20T12:11:39;100074.72;;;28.53;56.55
75938;BME280;64615;32.062;34.834;2023-07-20T12:14:09;100064.28;;;28.55;55.89
75938;BME280;64615;32.062;34.834;2023-07-20T12:16:35;100080.72;;;28.55;56.21
75938;BME280;64615;32.062;34.834;2023-07-20T12:19:12;100076.34;;;28.54;56.44
75938;BME280;64615;32.062;34.834;2023-07-20T12:21:39;100076.84;;;28.56;56.17
75938;BME280;64615;32.062;34.834;2023-07-20T12:24:07;100088.75;;;28.51;56.57
75938;BME280;64615;32.062;34.834;2023-07-20T12:26:34;100084.09;;;28.52;56.35
75938;BME280;64615;32.062;34.834;2023-07-20T12:29:00;100079.41;;;28.52;56.53
75938;BME280;64615;32.062;34.834;2023-07-20T12:31:27;100079.41;;;28.52;56.66
75938;BME280;64615;32.062;34.834;2023-07-20T12:33:54;100082.47;;;28.51;56.39
75938;BME280;64615;32.062;34.834;2023-07-20T12:36:23;100088.41;;;28.53;56.46
75938;BME280;64615;32.062;34.834;2023-07-20T12:38:49;100076.84;;;28.56;56.47
75938;BME280;64615;32.062;34.834;2023-07-20T12:41:15;100072.50;;;28.55;56.17
75938;BME280;64615;32.062;34.834;2023-07-20T12:43:41;100078.47;;;28.57;56.48
75938;BME280;64615;32.062;34.834;2023-07-20T12:46:08;100068.13;;;28.54;56.63
75938;BME280;64615;32.062;34.834;2023-07-20T12:48:34;100064.41;;;28.50;56.44
75938;BME280;64615;32.062;34.834;2023-07-20T12:51:02;100069.88;;;28.50;56.66
75938;BME280;64615;32.062;34.834;2023-07-20T12:53:28;100067.97;;;28.50;56.60
75938;BME280;64615;32.062;34.834;2023-07-20T12:55:54;100061.16;;;28.48;56.63
75938;BME280;64615;32.062;34.834;2023-07-20T12:58:19;100063.44;;;28.46;56.80